Haysville, KS (67060)

10:10 AM CST on December 09, 2016 (GMT -0600)
Suncrest | | Change Station

Elev 1259 ft 37.54 °N, 97.37 °W | Updated 13 minutes ago

Overcast
Overcast
23.4 °F
Feels Like 16 °F
N
6.0
Wind Variable Wind from ENE

Today
High -- | Low -- °F
--% Chance of Precip.
Yesterday
High -- | Low -- °F
Precip. -- in
Pressure 30.67 in
Visibility 10.0 miles
Clouds Overcast 6500 ft
Windchill 16 °F
Dew Point 13 °F
Humidity 63%
Rainfall 0.00 in
Snow Depth Not available.
7:32 AM 5:11 PM
Waxing Gibbous, 75% visible
METAR KIAB 091558Z AUTO 18011KT 10SM OVC065 M05/M11 A3060 RMK AO2 SLP386 T10491115 $
Pressure 30.67 in
Visibility 10.0 miles
Clouds Overcast 6500 ft
Windchill 16 °F
Dew Point 13 °F
Humidity 63%
Rainfall 0.00 in
Snow Depth Not available.
7:32 AM 5:11 PM
Waxing Gibbous, 75% visible
METAR KIAB 091558Z AUTO 18011KT 10SM OVC065 M05/M11 A3060 RMK AO2 SLP386 T10491115 $

10-Day Weather Forecast

Almanac

Astronomy

Dec. 09, 2016 Rise Set
Actual Time
Civil Twilight
Nautical Twilight
Astronomical Twilight
Moon
Length of Visible Light
Length of Day
Tomorrow will be .
, % of the Moon is Illuminated

Today's Extremes

State Highs State Lows

Community

WunderPhotos

Upload Photos

1,956,462 photos uploaded!

WunderBlog® & News

Nearby

Air Quality

  Air Quality AQ Index Pollutant
Not available.

Snow Depth

Station Depth Elevation

Earthquake Activity

City Distance Mag. Time & Date
Minimum magnitude displayed is 2.5.

Coastal Water Temperatures

Place Temperature

Stations

Nearby Weather Stations

Station Location Temp. Windchill Dew Point Humidity Wind Precip. Elev Updated Type
                   

Watches & Warnings

There are currently no watches in effect.